Time;durP1;ratioP1;P1;durP2;ratioP2;P2;SDS_P1;SDS_P2;PMS_P1;PMS_P2;Temp;Humidity;BMP_temperature;BMP_pressure;BME280_temperature;BME280_humidity;BME280_pressure;Samples;Min_cycle;Max_cycle;Signal;HPM_P1;HPM_P2
2022/05/01 00:00:10;;;;;;;1.55;1.40;;;;;;;18.51;43.37;102490.81;5042612;28;20018;-44
2022/05/01 00:02:35;;;;;;;2.30;1.45;;;;;;;18.50;43.14;102489.97;5043240;28;20033;-44
2022/05/01 00:05:01;;;;;;;1.40;1.30;;;;;;;18.48;43.30;102487.41;5043550;28;20025;-44
2022/05/01 00:07:27;;;;;;;1.90;1.48;;;;;;;18.49;43.30;102486.44;5047854;28;20093;-45
2022/05/01 00:09:52;;;;;;;1.40;1.30;;;;;;;18.49;43.20;102488.28;5046998;28;20021;-43
2022/05/01 00:12:17;;;;;;;1.50;1.20;;;;;;;18.48;43.13;102479.34;5047832;28;20030;-46
2022/05/01 00:14:42;;;;;;;1.50;1.27;;;;;;;18.48;43.20;102482.03;5046513;28;20030;-45
2022/05/01 00:17:08;;;;;;;1.30;1.13;;;;;;;18.48;42.80;102482.03;5046878;28;20029;-44
2022/05/01 00:19:33;;;;;;;1.58;1.40;;;;;;;18.47;43.02;102476.75;5050933;28;20032;-45
2022/05/01 00:21:59;;;;;;;1.33;1.20;;;;;;;18.47;43.15;102476.75;5067392;28;20063;-45
2022/05/01 00:24:25;;;;;;;1.52;1.38;;;;;;;18.46;43.25;102470.50;5047289;28;20072;-44
2022/05/01 00:26:51;;;;;;;1.92;1.60;;;;;;;18.47;43.13;102474.06;5047491;28;20628;-43
2022/05/01 00:29:16;;;;;;;1.55;1.45;;;;;;;18.45;43.33;102468.81;5046473;28;20037;-43
2022/05/01 00:31:41;;;;;;;1.42;1.33;;;;;;;18.43;43.03;102461.84;5046618;28;20040;-45
2022/05/01 00:36:50;;;;;;;1.95;1.55;;;;;;;18.43;43.27;102472.59;5046861;28;20137;-48
2022/05/01 00:39:15;;;;;;;1.50;1.40;;;;;;;18.43;43.30;102467.22;5045047;28;20060;-46
2022/05/01 00:41:43;;;;;;;1.42;1.33;;;;;;;18.40;43.10;102465.66;5047075;28;20029;-47
2022/05/01 00:44:10;;;;;;;1.70;1.60;;;;;;;18.42;43.29;102460.13;5046134;28;20116;-46
2022/05/01 00:46:41;;;;;;;1.88;1.70;;;;;;;18.42;43.34;102465.50;5056529;28;20025;-45
2022/05/01 00:49:09;;;;;;;1.58;1.48;;;;;;;18.41;43.05;102466.50;5066730;28;20646;-43
2022/05/01 00:51:55;;;;;;;1.98;1.60;;;;;;;18.41;43.31;102471.91;5066637;28;20092;-44
2022/05/01 00:54:22;;;;;;;1.40;1.30;;;;;;;18.38;43.06;102464.91;5046300;28;20025;-43
2022/05/01 00:56:50;;;;;;;1.60;1.50;;;;;;;18.37;43.08;102465.91;5046813;28;20081;-43
2022/05/01 00:59:16;;;;;;;1.30;1.20;;;;;;;18.38;43.32;102466.75;5044534;28;20026;-44
2022/05/01 01:01:43;;;;;;;1.42;1.33;;;;;;;18.34;43.27;102458.06;5046183;28;20033;-43
2022/05/01 01:04:09;;;;;;;1.52;1.42;;;;;;;18.35;43.05;102462.50;5046751;28;20040;-45
2022/05/01 01:06:35;;;;;;;1.40;1.30;;;;;;;18.37;43.14;102456.97;5046761;28;20047;-42
2022/05/01 01:09:00;;;;;;;1.83;1.60;;;;;;;18.35;43.06;102461.59;5046111;28;20021;-47
2022/05/01 01:11:26;;;;;;;1.30;1.20;;;;;;;18.30;43.06;102447.69;5046516;28;20030;-44
2022/05/01 01:13:51;;;;;;;1.65;1.40;;;;;;;18.34;43.27;102449.13;5045754;28;20036;-45
2022/05/01 01:16:17;;;;;;;1.95;1.50;;;;;;;18.32;43.10;102449.28;5045839;28;20048;-42
2022/05/01 01:18:42;;;;;;;1.38;1.27;;;;;;;18.33;43.02;102450.97;5045272;28;20053;-45
2022/05/01 01:21:12;;;;;;;1.40;1.30;;;;;;;18.32;43.37;102453.81;5061443;28;20564;-46
2022/05/01 01:23:39;;;;;;;1.65;1.55;;;;;;;18.33;43.14;102452.81;5050518;28;20033;-44
2022/05/01 01:26:05;;;;;;;1.25;1.15;;;;;;;18.32;43.27;102445.72;5044487;28;20498;-48
2022/05/01 01:28:33;;;;;;;1.50;1.40;;;;;;;18.32;43.23;102454.66;5045487;28;20029;-43
2022/05/01 01:33:43;;;;;;;1.50;1.40;;;;;;;18.29;43.01;102449.53;5046038;28;20036;-43
2022/05/01 01:36:09;;;;;;;1.80;1.70;;;;;;;18.30;43.18;102456.59;5044419;28;20041;-45
2022/05/01 01:38:35;;;;;;;1.60;1.40;;;;;;;18.28;42.98;102450.50;5045477;28;20033;-45
2022/05/01 01:41:05;;;;;;;1.48;1.38;;;;;;;18.29;43.16;102449.53;5046158;28;20158;-43
2022/05/01 01:43:31;;;;;;;1.38;1.23;;;;;;;18.29;43.00;102459.44;5043805;28;20037;-46
2022/05/01 01:45:56;;;;;;;1.52;1.42;;;;;;;18.28;43.05;102449.66;5049202;28;20112;-44
2022/05/01 01:48:23;;;;;;;1.50;1.40;;;;;;;18.29;43.10;102456.75;5065593;28;20127;-44
2022/05/01 01:50:59;;;;;;;1.50;1.33;;;;;;;18.28;43.26;102446.97;5052172;28;20063;-46
2022/05/01 01:53:26;;;;;;;1.50;1.40;;;;;;;18.27;43.16;102454.19;5045554;28;20085;-45
2022/05/01 01:55:52;;;;;;;1.20;1.10;;;;;;;18.26;43.24;102455.16;5045630;28;20032;-47
2022/05/01 01:58:18;;;;;;;1.77;1.48;;;;;;;18.27;43.29;102461.41;5044910;28;20053;-47
2022/05/01 02:00:44;;;;;;;1.70;1.60;;;;;;;18.25;43.21;102453.44;5045498;28;20025;-42
2022/05/01 02:03:09;;;;;;;1.30;1.20;;;;;;;18.24;43.09;102444.53;5045013;28;20036;-44
2022/05/01 02:05:34;;;;;;;1.50;1.40;;;;;;;18.23;43.13;102445.50;5045324;28;20426;-44
2022/05/01 02:08:00;;;;;;;1.52;1.40;;;;;;;18.23;43.01;102442.81;5045357;28;20079;-44
2022/05/01 02:10:26;;;;;;;1.77;1.65;;;;;;;18.23;43.35;102444.66;5044968;28;20047;-44
2022/05/01 02:12:51;;;;;;;1.48;1.38;;;;;;;18.23;43.13;102444.66;5045298;28;20040;-43
2022/05/01 02:15:18;;;;;;;1.20;1.10;;;;;;;18.22;43.12;102442.91;5044611;28;20048;-44
2022/05/01 02:17:44;;;;;;;1.80;1.50;;;;;;;18.20;43.09;102437.69;5044775;28;20088;-43
2022/05/01 02:20:10;;;;;;;1.73;1.50;;;;;;;18.21;43.28;102439.38;5045942;28;20056;-44
2022/05/01 02:22:36;;;;;;;1.60;1.50;;;;;;;18.21;43.00;102443.91;5045300;28;20021;-47
2022/05/01 02:25:02;;;;;;;1.70;1.60;;;;;;;18.20;43.16;102429.59;5045068;28;20045;-43
2022/05/01 02:27:27;;;;;;;1.55;1.45;;;;;;;18.20;43.20;102434.97;5045259;28;20024;-43
2022/05/01 02:29:53;;;;;;;1.38;1.20;;;;;;;18.19;43.27;102435.97;5043896;28;20029;-44
2022/05/01 02:32:18;;;;;;;1.30;1.20;;;;;;;18.19;43.02;102440.50;5044609;28;20060;-47
2022/05/01 02:34:45;;;;;;;1.58;1.48;;;;;;;18.18;43.49;102434.28;5045008;28;20056;-45
2022/05/01 02:37:10;;;;;;;1.42;1.33;;;;;;;18.16;43.11;102433.53;5043705;28;20084;-44
2022/05/01 02:39:35;;;;;;;1.55;1.30;;;;;;;18.16;42.93;102430.84;5044503;28;20048;-44
2022/05/01 02:42:00;;;;;;;1.50;1.40;;;;;;;18.16;43.08;102430.84;5044818;28;20021;-46
2022/05/01 02:44:26;;;;;;;1.70;1.60;;;;;;;18.16;43.32;102432.69;5075946;28;20033;-48
2022/05/01 02:46:51;;;;;;;1.58;1.48;;;;;;;18.17;42.98;102434.38;5056384;28;20025;-48
2022/05/01 02:49:16;;;;;;;1.58;1.38;;;;;;;18.13;43.24;102431.06;5061707;28;20132;-49
2022/05/01 02:51:42;;;;;;;1.58;1.48;;;;;;;18.12;43.10;102426.69;5044793;28;20081;-44
2022/05/01 02:54:07;;;;;;;1.48;1.38;;;;;;;18.11;43.28;102430.38;5044365;28;20493;-45
2022/05/01 02:56:33;;;;;;;1.42;1.33;;;;;;;18.13;43.08;102428.38;5044564;28;20025;-45
2022/05/01 02:59:00;;;;;;;1.48;1.38;;;;;;;18.13;42.98;102428.38;5043588;28;20060;-44
2022/05/01 03:01:25;;;;;;;1.50;1.38;;;;;;;18.12;43.25;102424.00;5043880;28;20040;-46
2022/05/01 03:03:50;;;;;;;1.20;1.10;;;;;;;18.12;43.02;102425.84;5044364;28;20516;-45
2022/05/01 03:06:16;;;;;;;1.60;1.50;;;;;;;18.11;43.46;102424.97;5044368;28;20048;-45
2022/05/01 03:08:41;;;;;;;1.50;1.40;;;;;;;18.10;43.32;102419.75;5043791;28;20102;-47
2022/05/01 03:11:06;;;;;;;1.63;1.52;;;;;;;18.11;42.98;102418.75;5043970;28;20483;-44
2022/05/01 03:13:31;;;;;;;3.47;1.85;;;;;;;18.11;43.04;102424.13;5043318;28;20048;-47
2022/05/01 03:15:57;;;;;;;1.80;1.52;;;;;;;18.07;43.23;102415.44;5044219;28;20059;-46
2022/05/01 03:23:50;;;;;;;1.70;1.60;;;;;;;18.05;43.33;102419.25;5043937;28;20166;-45
2022/05/01 03:26:19;;;;;;;1.70;1.50;;;;;;;18.07;43.17;102411.91;5044065;28;20125;-44
2022/05/01 03:28:47;;;;;;;2.17;1.48;;;;;;;18.07;43.25;102417.28;5043124;28;20100;-44
2022/05/01 03:31:13;;;;;;;1.67;1.58;;;;;;;18.07;43.36;102417.28;5043460;28;20537;-43
2022/05/01 03:33:39;;;;;;;1.50;1.40;;;;;;;18.06;43.33;102413.75;5042496;28;20033;-44
2022/05/01 03:36:06;;;;;;;1.30;1.20;;;;;;;18.04;43.09;102413.00;5043606;28;20056;-44
2022/05/01 03:38:36;;;;;;;1.65;1.55;;;;;;;18.04;43.19;102412.16;5043645;28;20029;-46
2022/05/01 03:41:02;;;;;;;1.58;1.48;;;;;;;18.04;43.16;102407.63;5043154;28;20034;-48
2022/05/01 03:43:27;;;;;;;1.50;1.40;;;;;;;18.03;43.12;102407.75;5043087;28;20083;-46
2022/05/01 03:45:52;;;;;;;1.73;1.63;;;;;;;18.03;42.94;102408.59;5047672;28;20029;-45
2022/05/01 03:48:17;;;;;;;1.70;1.52;;;;;;;18.03;43.18;102408.59;5063112;28;20111;-45
2022/05/01 03:50:43;;;;;;;1.73;1.50;;;;;;;18.02;43.05;102409.59;5046804;28;20098;-45
2022/05/01 03:53:08;;;;;;;1.55;1.45;;;;;;;18.02;42.96;102411.44;5043308;28;20841;-46
2022/05/01 03:55:36;;;;;;;1.52;1.42;;;;;;;18.02;43.17;102406.06;5043806;28;20025;-45
2022/05/01 03:58:01;;;;;;;1.73;1.63;;;;;;;18.02;43.17;102419.50;5042812;28;20034;-43
2022/05/01 04:00:27;;;;;;;1.63;1.52;;;;;;;18.00;43.23;102416.94;5043510;28;20646;-47
2022/05/01 04:02:53;;;;;;;1.40;1.30;;;;;;;18.01;43.04;102417.78;5043131;28;20030;-46
2022/05/01 04:05:18;;;;;;;1.88;1.48;;;;;;;17.99;43.22;102423.28;5043446;28;20043;-45
2022/05/01 04:07:43;;;;;;;1.50;1.40;;;;;;;17.99;43.05;102423.28;5043273;28;20083;-44
2022/05/01 04:10:10;;;;;;;1.50;1.40;;;;;;;17.98;43.06;102426.97;5042877;28;20041;-44
2022/05/01 04:12:43;;;;;;;1.48;1.38;;;;;;;17.98;42.88;102425.13;5043549;28;20443;-48
2022/05/01 04:15:09;;;;;;;1.52;1.42;;;;;;;17.97;43.25;102423.44;5042730;28;20028;-44
2022/05/01 04:17:39;;;;;;;1.80;1.70;;;;;;;17.97;43.00;102425.28;5041745;28;20075;-46
2022/05/01 04:20:11;;;;;;;1.50;1.40;;;;;;;17.97;43.08;102426.13;5043132;28;20031;-49
2022/05/01 04:22:45;;;;;;;1.42;1.30;;;;;;;17.97;43.02;102436.03;5043570;28;20502;-45
2022/05/01 04:25:22;;;;;;;1.52;1.42;;;;;;;17.96;43.19;102429.78;5043284;28;20044;-45
2022/05/01 04:27:56;;;;;;;1.48;1.38;;;;;;;17.95;43.12;102428.06;5043173;28;20017;-45
2022/05/01 04:30:22;;;;;;;1.50;1.40;;;;;;;17.95;42.93;102428.06;5042711;28;20033;-46
2022/05/01 04:33:00;;;;;;;1.25;1.15;;;;;;;17.94;43.10;102420.97;5042661;28;20057;-45
2022/05/01 04:35:31;;;;;;;1.58;1.48;;;;;;;17.94;43.23;102428.22;5043143;28;20021;-45
2022/05/01 04:38:21;;;;;;;1.88;1.35;;;;;;;17.93;43.04;102431.88;5042949;28;20128;-49
2022/05/01 04:40:48;;;;;;;1.40;1.30;;;;;;;17.91;43.20;102426.59;5032977;28;20672;-46
2022/05/01 04:43:19;;;;;;;1.40;1.30;;;;;;;17.91;43.24;102425.75;5042491;28;20025;-45
2022/05/01 04:45:49;;;;;;;1.50;1.40;;;;;;;17.88;43.19;102420.63;5045915;28;20024;-46
2022/05/01 04:48:15;;;;;;;1.40;1.30;;;;;;;17.90;42.97;102427.59;5052709;28;20089;-43
2022/05/01 04:50:41;;;;;;;1.48;1.38;;;;;;;17.90;43.10;102427.59;5042621;28;20526;-47
2022/05/01 04:53:09;;;;;;;1.35;1.25;;;;;;;17.90;43.33;102424.91;5040152;28;20030;-45
2022/05/01 04:55:35;;;;;;;1.90;1.60;;;;;;;17.89;42.98;102427.72;5045215;28;20085;-45
2022/05/01 04:58:01;;;;;;;1.33;1.23;;;;;;;17.88;43.15;102420.63;5042734;28;20033;-43
2022/05/01 05:00:26;;;;;;;1.67;1.55;;;;;;;17.86;43.38;102419.91;5043265;28;20038;-43
2022/05/01 05:02:53;;;;;;;1.50;1.40;;;;;;;17.90;42.88;102434.81;5043000;28;20029;-45
2022/05/01 05:05:19;;;;;;;1.23;1.13;;;;;;;17.90;43.12;102434.81;5045717;28;20025;-44
2022/05/01 05:07:45;;;;;;;1.90;1.73;;;;;;;17.89;43.05;102433.97;5047214;28;20071;-45
2022/05/01 05:10:11;;;;;;;1.65;1.55;;;;;;;17.90;43.13;102437.50;5043058;28;20029;-45
2022/05/01 05:12:38;;;;;;;1.50;1.40;;;;;;;17.89;42.94;102436.66;5046452;28;20057;-43
2022/05/01 05:15:08;;;;;;;1.48;1.38;;;;;;;17.88;43.11;102437.66;5040712;28;20112;-44
2022/05/01 05:17:34;;;;;;;1.80;1.65;;;;;;;17.85;42.89;102432.50;5042666;28;20018;-43
2022/05/01 05:19:59;;;;;;;1.40;1.30;;;;;;;17.87;43.08;102441.28;5046341;28;20033;-43
2022/05/01 05:22:25;;;;;;;1.80;1.70;;;;;;;17.88;43.28;102458.28;5045947;28;20056;-45
2022/05/01 05:24:50;;;;;;;1.30;1.20;;;;;;;17.87;43.09;102449.38;5042799;28;20072;-42
2022/05/01 05:27:17;;;;;;;1.40;1.30;;;;;;;17.86;43.27;102444.97;5046005;28;20617;-43
2022/05/01 05:29:42;;;;;;;1.50;1.40;;;;;;;17.87;43.47;102448.50;5045260;28;20029;-45
2022/05/01 05:32:08;;;;;;;1.50;1.40;;;;;;;17.82;43.37;102435.44;5045380;28;20040;-44
2022/05/01 05:34:33;;;;;;;1.80;1.70;;;;;;;17.84;43.16;102448.75;5041437;28;20052;-44
2022/05/01 05:36:58;;;;;;;1.40;1.30;;;;;;;17.86;43.60;102455.72;5025792;28;20048;-42
2022/05/01 05:39:23;;;;;;;3.00;1.50;;;;;;;17.85;43.46;102454.03;5033196;28;20428;-42
2022/05/01 05:41:49;;;;;;;1.48;1.38;;;;;;;17.81;43.76;102452.56;5045001;28;20025;-46
2022/05/01 05:44:14;;;;;;;1.50;1.33;;;;;;;17.85;43.81;102454.03;5024943;28;20022;-45
2022/05/01 05:46:39;;;;;;;1.58;1.48;;;;;;;17.83;43.69;102453.28;5044788;28;20022;-44
2022/05/01 05:49:05;;;;;;;1.60;1.50;;;;;;;17.85;43.68;102451.34;5041982;28;20487;-45
2022/05/01 05:51:30;;;;;;;1.70;1.60;;;;;;;17.85;43.75;102454.03;5026019;28;20040;-46
2022/05/01 05:53:56;;;;;;;1.67;1.58;;;;;;;17.85;43.74;102458.56;5029583;28;20477;-42
2022/05/01 05:56:22;;;;;;;1.50;1.40;;;;;;;17.86;43.94;102457.56;5045175;28;20037;-43
2022/05/01 05:58:47;;;;;;;1.70;1.60;;;;;;;17.86;43.87;102457.56;5044227;28;20083;-44
2022/05/01 06:01:13;;;;;;;1.55;1.45;;;;;;;17.87;43.79;102468.19;5027985;28;20144;-43
2022/05/01 06:03:38;;;;;;;1.48;1.30;;;;;;;17.87;43.97;102465.50;5034427;28;20054;-45
2022/05/01 06:06:04;;;;;;;1.83;1.40;;;;;;;17.85;44.01;102461.25;5034654;28;20037;-44
2022/05/01 06:08:29;;;;;;;1.77;1.67;;;;;;;17.88;43.93;102463.66;5044297;28;20113;-45
2022/05/01 06:10:55;;;;;;;1.40;1.30;;;;;;;17.87;43.94;102465.50;5033175;28;20423;-43
2022/05/01 06:13:20;;;;;;;1.35;1.25;;;;;;;17.87;44.22;102462.81;5024645;28;20026;-45
2022/05/01 06:15:46;;;;;;;1.75;1.40;;;;;;;17.88;44.00;102463.66;5041049;28;20047;-47
2022/05/01 06:18:11;;;;;;;1.60;1.50;;;;;;;17.88;44.30;102471.75;5044146;28;20021;-44
2022/05/01 06:20:37;;;;;;;1.55;1.45;;;;;;;17.86;44.08;102465.66;5044380;28;20030;-46
2022/05/01 06:23:02;;;;;;;2.35;1.77;;;;;;;17.89;44.10;102479.72;5031061;28;20081;-44
2022/05/01 06:25:28;;;;;;;1.67;1.50;;;;;;;17.84;44.19;102473.84;5031030;28;20049;-45
2022/05/01 06:27:53;;;;;;;2.72;1.50;;;;;;;17.87;44.29;102478.97;5027654;28;20532;-49
2022/05/01 06:30:18;;;;;;;1.67;1.58;;;;;;;17.89;44.51;102478.84;5032669;28;20482;-47
2022/05/01 06:32:44;;;;;;;1.55;1.42;;;;;;;17.90;44.23;102470.66;5041283;28;20087;-47
2022/05/01 06:35:09;;;;;;;1.50;1.40;;;;;;;17.91;44.18;102474.19;5042024;28;20033;-49
2022/05/01 06:37:35;;;;;;;1.40;1.30;;;;;;;17.92;44.22;102479.44;5040452;28;20025;-48
2022/05/01 06:40:01;;;;;;;1.77;1.63;;;;;;;17.93;44.45;102474.94;5035394;28;20545;-49
2022/05/01 06:42:26;;;;;;;1.83;1.40;;;;;;;17.94;44.26;102480.19;5038588;28;20034;-49
2022/05/01 06:44:51;;;;;;;1.35;1.23;;;;;;;17.95;44.34;102475.66;5041180;28;20021;-49
2022/05/01 06:47:16;;;;;;;2.05;1.85;;;;;;;17.97;44.53;102481.78;5041452;28;20037;-47
2022/05/01 06:49:42;;;;;;;1.60;1.40;;;;;;;17.96;44.39;102478.22;5041562;28;20025;-56
2022/05/01 06:52:07;;;;;;;1.77;1.42;;;;;;;17.97;44.38;102479.09;5040718;28;20047;-56
2022/05/01 06:54:32;;;;;;;1.90;1.80;;;;;;;17.97;44.16;102474.56;5040746;28;20032;-49
2022/05/01 06:56:58;;;;;;;1.60;1.50;;;;;;;17.97;44.66;102474.56;5040523;28;20044;-47
2022/05/01 06:59:23;;;;;;;1.48;1.38;;;;;;;17.99;44.60;102474.44;5040829;28;20041;-50
2022/05/01 07:01:48;;;;;;;1.40;1.30;;;;;;;17.98;44.56;102470.03;5041620;28;20053;-51
2022/05/01 07:04:13;;;;;;;1.40;1.30;;;;;;;18.00;44.70;102476.13;5042092;28;20562;-51
2022/05/01 07:06:40;;;;;;;1.40;1.30;;;;;;;18.00;44.54;102465.38;5041405;28;20101;-47
2022/05/01 07:09:06;;;;;;;1.83;1.73;;;;;;;18.02;44.84;102470.66;5041203;28;20033;-48
2022/05/01 07:11:31;;;;;;;1.50;1.40;;;;;;;18.01;44.77;102471.59;5042518;28;20037;-48
2022/05/01 07:13:56;;;;;;;1.60;1.50;;;;;;;18.02;44.70;102474.19;5040400;28;20064;-45
2022/05/01 07:16:22;;;;;;;1.38;1.27;;;;;;;18.02;44.65;102478.72;5040108;28;20045;-47
2022/05/01 07:18:47;;;;;;;1.35;1.17;;;;;;;18.03;44.74;102480.44;5041266;28;20731;-45
2022/05/01 07:21:13;;;;;;;1.80;1.65;;;;;;;18.03;44.47;102481.28;5040815;28;20033;-45
2022/05/01 07:23:38;;;;;;;1.55;1.45;;;;;;;18.04;44.56;102471.38;5035322;28;20030;-46
2022/05/01 07:26:03;;;;;;;2.00;1.40;;;;;;;18.02;44.47;102468.81;5040528;28;20088;-46
2022/05/01 07:28:28;;;;;;;1.73;1.55;;;;;;;18.02;44.55;102474.19;5040490;28;20044;-46
2022/05/01 07:30:53;;;;;;;1.73;1.63;;;;;;;18.02;44.50;102470.66;5041392;28;20025;-48
2022/05/01 07:33:19;;;;;;;1.70;1.60;;;;;;;18.03;44.73;102475.03;5041323;28;20029;-51
2022/05/01 07:35:44;;;;;;;2.03;1.85;;;;;;;18.01;44.73;102480.56;5041289;28;20057;-53
2022/05/01 07:38:09;;;;;;;1.50;1.40;;;;;;;18.02;44.68;102471.50;5040778;28;20060;-46
2022/05/01 07:40:34;;;;;;;1.95;1.40;;;;;;;18.03;44.79;102470.50;5041141;28;20060;-47
2022/05/01 07:43:00;;;;;;;1.52;1.42;;;;;;;18.05;44.70;102475.75;5040894;28;20033;-48
2022/05/01 07:45:25;;;;;;;1.63;1.52;;;;;;;18.07;44.48;102479.19;5039802;28;20611;-50
2022/05/01 07:47:50;;;;;;;2.05;1.55;;;;;;;18.08;44.55;102480.91;5042154;28;20033;-48
2022/05/01 07:50:17;;;;;;;1.30;1.20;;;;;;;18.10;44.80;102473.56;5041210;28;20040;-47
2022/05/01 07:52:42;;;;;;;2.85;2.10;;;;;;;18.09;44.86;102479.91;5038456;28;20044;-47
2022/05/01 07:55:08;;;;;;;1.40;1.30;;;;;;;18.13;44.52;102479.53;5040574;28;20026;-47
2022/05/01 07:57:33;;;;;;;1.88;1.67;;;;;;;18.07;44.44;102468.44;5040890;28;20536;-51
2022/05/01 07:59:58;;;;;;;1.80;1.50;;;;;;;18.14;44.56;102475.88;5039717;28;20049;-49
2022/05/01 08:02:23;;;;;;;1.88;1.60;;;;;;;18.16;44.41;102467.66;5040157;28;20041;-48
2022/05/01 08:04:49;;;;;;;1.50;1.40;;;;;;;18.16;44.55;102470.38;5040722;28;20049;-47
2022/05/01 08:07:15;;;;;;;1.90;1.70;;;;;;;18.17;44.67;102472.91;5040720;28;20056;-48
2022/05/01 08:09:40;;;;;;;2.10;1.60;;;;;;;18.16;44.50;102468.53;5040540;28;20599;-50
2022/05/01 08:12:06;;;;;;;1.58;1.48;;;;;;;18.18;44.55;102473.78;5039326;28;20036;-46
2022/05/01 08:14:32;;;;;;;2.00;1.52;;;;;;;18.20;44.65;102469.13;5039113;28;20085;-47
2022/05/01 08:16:57;;;;;;;1.90;1.50;;;;;;;18.21;44.58;102469.00;5040245;28;20040;-48
2022/05/01 08:22:06;;;;;;;2.22;1.40;;;;;;;18.19;44.77;102467.44;5041063;28;20040;-50
2022/05/01 08:24:33;;;;;;;1.50;1.40;;;;;;;18.23;44.69;102468.88;5040322;28;20549;-46
2022/05/01 08:27:04;;;;;;;1.48;1.38;;;;;;;18.23;44.45;102466.19;5042217;28;20037;-45
2022/05/01 08:29:30;;;;;;;1.45;1.30;;;;;;;18.25;44.48;102466.91;5042659;28;20020;-50
2022/05/01 08:31:55;;;;;;;1.83;1.73;;;;;;;18.25;44.62;102475.00;5056476;28;20017;-50
2022/05/01 08:34:20;;;;;;;3.38;1.45;;;;;;;18.21;44.40;102466.31;5042318;28;20033;-45
2022/05/01 08:36:45;;;;;;;1.85;1.60;;;;;;;18.27;44.31;102474.88;5042894;28;20057;-47
2022/05/01 08:39:11;;;;;;;1.60;1.50;;;;;;;18.28;44.54;102479.28;5043431;28;20030;-52
2022/05/01 08:41:37;;;;;;;1.80;1.70;;;;;;;18.27;44.60;102478.44;5044399;28;20048;-53
2022/05/01 08:44:05;;;;;;;2.05;1.63;;;;;;;18.24;44.62;102463.38;5043446;28;20426;-51
2022/05/01 08:46:36;;;;;;;1.48;1.38;;;;;;;18.29;44.47;102471.06;5044680;28;20089;-53
2022/05/01 08:49:04;;;;;;;1.63;1.52;;;;;;;18.30;44.51;102464.69;5043204;28;20150;-51
2022/05/01 08:51:40;;;;;;;1.42;1.33;;;;;;;18.32;44.57;102469.97;5044273;28;20048;-45
2022/05/01 08:54:07;;;;;;;1.40;1.30;;;;;;;18.31;44.77;102463.72;5044494;28;20045;-46
2022/05/01 08:56:33;;;;;;;1.20;1.10;;;;;;;18.33;44.54;102467.13;5044166;28;20131;-45
2022/05/01 08:59:04;;;;;;;1.35;1.25;;;;;;;18.33;44.60;102464.44;5042658;28;20091;-45
2022/05/01 09:01:31;;;;;;;1.42;1.33;;;;;;;18.34;44.77;102470.69;5044613;28;20034;-43
2022/05/01 09:03:57;;;;;;;1.67;1.20;;;;;;;18.33;44.38;102458.22;5044003;28;20034;-50
2022/05/01 09:06:22;;;;;;;1.27;1.17;;;;;;;18.35;44.35;102464.31;5043765;28;20041;-51
2022/05/01 09:08:51;;;;;;;1.40;1.30;;;;;;;18.34;44.50;102455.38;5042152;28;20035;-48
2022/05/01 09:14:01;;;;;;;1.27;1.17;;;;;;;18.34;44.73;102457.22;5046177;28;20115;-46
2022/05/01 09:16:27;;;;;;;1.40;1.30;;;;;;;18.34;44.62;102470.69;5044308;28;20049;-47
2022/05/01 09:18:52;;;;;;;1.58;1.35;;;;;;;18.34;44.77;102463.44;5043634;28;20041;-45
2022/05/01 09:21:17;;;;;;;1.45;1.20;;;;;;;18.33;44.72;102461.75;5044020;28;20479;-49
2022/05/01 09:23:45;;;;;;;1.15;1.05;;;;;;;18.33;44.48;102460.91;5044077;28;20635;-45
2022/05/01 09:26:15;;;;;;;1.52;1.35;;;;;;;18.34;44.63;102463.44;5043389;28;20017;-48
2022/05/01 09:28:51;;;;;;;1.50;1.40;;;;;;;18.34;45.01;102460.75;5040573;28;20022;-49
2022/05/01 09:31:18;;;;;;;2.53;1.63;;;;;;;18.33;44.80;102461.75;5042833;28;20021;-50
2022/05/01 09:33:43;;;;;;;1.52;1.10;;;;;;;18.32;44.77;102461.88;5043266;28;20017;-48
2022/05/01 09:36:16;;;;;;;1.50;1.40;;;;;;;18.35;44.51;102461.59;5042067;28;20053;-50
2022/05/01 09:38:43;;;;;;;1.70;1.38;;;;;;;18.36;44.88;102468.72;5040758;28;20029;-47
2022/05/01 09:41:13;;;;;;;0.90;0.90;;;;;;;18.37;44.63;102463.22;5043557;28;20045;-46
2022/05/01 09:43:44;;;;;;;1.20;1.10;;;;;;;18.39;44.55;102461.25;5042853;28;20037;-46
2022/05/01 09:46:23;;;;;;;1.40;1.30;;;;;;;18.41;44.66;102453.03;5042792;28;20037;-50
2022/05/01 09:49:09;;;;;;;1.20;1.10;;;;;;;18.41;44.50;102455.72;5041177;28;20499;-47
2022/05/01 09:51:38;;;;;;;1.20;1.10;;;;;;;18.38;44.71;102447.91;5043906;28;20036;-49
2022/05/01 09:54:05;;;;;;;1.30;1.20;;;;;;;18.38;44.66;102448.75;5042987;28;20091;-48
2022/05/01 09:56:46;;;;;;;1.48;1.13;;;;;;;18.43;44.44;102451.91;5043505;28;20029;-46
2022/05/01 09:59:12;;;;;;;1.42;1.33;;;;;;;18.42;44.71;102452.06;5042343;28;20040;-48
2022/05/01 10:01:37;;;;;;;1.30;1.13;;;;;;;18.38;44.57;102445.22;5043269;28;20034;-47
2022/05/01 10:04:02;;;;;;;1.33;1.23;;;;;;;18.40;44.65;102438.72;5041783;28;20048;-47
2022/05/01 10:06:29;;;;;;;1.63;1.25;;;;;;;18.43;44.80;102443.84;5043335;28;20037;-46
2022/05/01 10:08:55;;;;;;;1.40;1.30;;;;;;;18.44;44.65;102431.25;5041864;28;20021;-48
2022/05/01 10:11:23;;;;;;;1.13;1.02;;;;;;;18.45;44.64;102432.94;5042464;28;20573;-50
2022/05/01 10:13:49;;;;;;;1.25;1.10;;;;;;;18.42;44.73;102433.19;5042156;28;20025;-44
2022/05/01 10:16:17;;;;;;;1.33;1.23;;;;;;;18.43;44.73;102429.50;5042670;28;20027;-48
2022/05/01 10:18:46;;;;;;;1.17;1.08;;;;;;;18.46;44.62;102434.66;5042115;28;20017;-48
2022/05/01 10:21:12;;;;;;;1.45;1.20;;;;;;;18.41;44.67;102424.28;5039493;28;20051;-46
2022/05/01 10:23:39;;;;;;;1.20;1.10;;;;;;;18.46;44.59;102429.28;5042130;28;20021;-48
2022/05/01 10:26:13;;;;;;;1.25;1.15;;;;;;;18.46;44.56;102435.50;5041710;28;20021;-48
2022/05/01 10:28:51;;;;;;;1.23;1.13;;;;;;;18.48;44.81;102430.00;5040234;28;20013;-47
2022/05/01 10:34:26;;;;;;;1.60;1.50;;;;;;;18.47;44.55;102426.44;5042029;28;20052;-48
2022/05/01 10:37:17;;;;;;;1.30;1.20;;;;;;;18.47;44.52;102421.03;5042361;28;20069;-48
2022/05/01 10:39:43;;;;;;;1.20;1.10;;;;;;;18.47;44.97;102428.28;5042430;28;20033;-45
2022/05/01 10:42:08;;;;;;;1.85;1.38;;;;;;;18.47;44.81;102420.19;5042509;28;20197;-47
2022/05/01 10:44:36;;;;;;;1.20;1.10;;;;;;;18.47;45.05;102414.81;5041413;28;20040;-46
2022/05/01 10:47:16;;;;;;;2.15;1.50;;;;;;;18.49;45.08;102421.78;5041937;28;20029;-47
2022/05/01 10:49:47;;;;;;;1.55;1.40;;;;;;;18.51;44.94;102420.81;5040925;28;20613;-50
2022/05/01 10:52:20;;;;;;;2.08;1.65;;;;;;;18.51;44.93;102415.41;5042596;28;20479;-46
2022/05/01 10:54:58;;;;;;;1.70;1.58;;;;;;;18.53;45.12;102416.16;5040757;28;20025;-46
2022/05/01 10:57:24;;;;;;;3.20;2.00;;;;;;;18.50;45.02;102406.47;5041649;28;20031;-45
2022/05/01 10:59:50;;;;;;;2.08;1.70;;;;;;;18.53;45.19;102405.38;5041222;28;20277;-44
2022/05/01 11:02:31;;;;;;;1.92;1.70;;;;;;;18.54;45.14;102399.00;5041546;28;20048;-49
2022/05/01 11:04:57;;;;;;;2.45;1.92;;;;;;;18.53;45.08;102400.84;5039950;28;20017;-47
2022/05/01 11:07:25;;;;;;;2.45;1.83;;;;;;;18.45;45.23;102388.03;5041517;28;20017;-44
2022/05/01 11:09:51;;;;;;;4.07;2.40;;;;;;;18.54;45.14;102399.00;5041409;28;20446;-46
2022/05/01 11:12:19;;;;;;;3.03;2.17;;;;;;;18.56;45.16;102389.78;5041351;28;20025;-45
2022/05/01 11:15:02;;;;;;;3.60;2.35;;;;;;;18.58;44.91;102397.75;5041267;28;20025;-44
2022/05/01 11:17:36;;;;;;;3.17;2.25;;;;;;;18.57;45.10;102396.91;5040525;28;20055;-44
2022/05/01 11:20:05;;;;;;;5.75;3.08;;;;;;;18.57;45.12;102386.13;5042188;28;20033;-50
2022/05/01 11:22:31;;;;;;;2.47;2.03;;;;;;;18.47;45.07;102375.25;5042039;28;20040;-50
2022/05/01 11:24:57;;;;;;;3.13;2.25;;;;;;;18.59;45.69;102386.00;5041727;28;20114;-48
2022/05/01 11:27:22;;;;;;;2.70;2.00;;;;;;;18.55;44.71;102377.31;5041494;28;20498;-47
2022/05/01 11:30:06;;;;;;;2.55;2.08;;;;;;;18.61;45.00;102384.03;5041151;28;20163;-47
2022/05/01 11:32:58;;;;;;;3.38;2.33;;;;;;;18.61;44.71;102378.66;5041436;28;20021;-50
2022/05/01 11:36:00;;;;;;;3.40;2.55;;;;;;;18.61;44.69;102375.97;5037802;28;20088;-46
2022/05/01 11:38:53;;;;;;;2.67;2.20;;;;;;;18.61;44.89;102374.09;5037382;28;20187;-48
2022/05/01 11:41:41;;;;;;;3.33;2.28;;;;;;;18.62;44.69;102373.13;5032552;28;20045;-44
2022/05/01 11:44:23;;;;;;;2.53;2.25;;;;;;;18.63;44.93;102366.75;5040012;28;20041;-47